createdAt,value
2022-12-25T00:00:34.241Z,3.50
2022-12-25T00:03:01.091Z,3.80
2022-12-25T00:05:28.638Z,2.93
2022-12-25T00:07:56.699Z,3.60
2022-12-25T00:10:23.451Z,3.30
2022-12-25T00:12:50.196Z,3.80
2022-12-25T00:15:16.558Z,3.30
2022-12-25T00:17:43.075Z,2.77
2022-12-25T00:20:12.485Z,2.43
2022-12-25T00:22:38.736Z,2.93
2022-12-25T00:25:07.452Z,4.07
2022-12-25T00:27:37.567Z,4.30
2022-12-25T00:30:09.913Z,3.50
2022-12-25T00:32:37.298Z,4.03
2022-12-25T00:35:06.082Z,3.23
2022-12-25T00:37:32.399Z,3.93
2022-12-25T00:39:58.757Z,3.40
2022-12-25T00:42:27.793Z,3.40
2022-12-25T00:44:55.296Z,4.33
2022-12-25T00:47:21.892Z,3.47
2022-12-25T00:49:48.343Z,3.77
2022-12-25T00:52:15.836Z,4.20
2022-12-25T00:54:42.117Z,3.43
2022-12-25T00:57:08.732Z,4.33
2022-12-25T00:59:35.471Z,4.30
2022-12-25T01:02:22.217Z,3.27
2022-12-25T01:04:52.153Z,4.10
2022-12-25T01:07:19.000Z,3.47
2022-12-25T01:10:04.605Z,3.50
2022-12-25T01:12:32.041Z,4.37
2022-12-25T01:14:58.381Z,3.27
2022-12-25T01:17:24.709Z,3.43
2022-12-25T01:19:51.057Z,3.93
2022-12-25T01:22:17.590Z,3.63
2022-12-25T01:24:44.634Z,3.33
2022-12-25T01:27:11.307Z,3.80
2022-12-25T01:29:38.454Z,4.10
2022-12-25T01:32:05.641Z,3.43
2022-12-25T01:34:32.007Z,2.80
2022-12-25T01:36:58.291Z,3.43
2022-12-25T01:39:27.893Z,3.80
2022-12-25T01:41:54.199Z,4.03
2022-12-25T01:44:36.326Z,3.70
2022-12-25T01:47:04.419Z,4.93
2022-12-25T01:49:31.846Z,3.90
2022-12-25T01:52:03.060Z,3.53
2022-12-25T01:54:32.682Z,3.63
2022-12-25T01:57:00.377Z,3.37
2022-12-25T01:59:27.366Z,3.93
2022-12-25T02:01:53.914Z,3.43
2022-12-25T02:04:41.582Z,3.13
2022-12-25T02:07:09.681Z,3.10
2022-12-25T02:09:37.040Z,2.90
2022-12-25T02:12:04.998Z,4.07
2022-12-25T02:14:33.552Z,3.10
2022-12-25T02:17:08.503Z,3.50
2022-12-25T02:19:57.127Z,3.22
2022-12-25T02:22:42.838Z,2.80
2022-12-25T02:25:16.043Z,3.57
2022-12-25T02:28:00.451Z,3.70
2022-12-25T02:30:30.426Z,3.00
2022-12-25T02:33:19.258Z,3.17
2022-12-25T02:35:47.360Z,2.83
2022-12-25T02:38:20.079Z,3.27
2022-12-25T02:40:50.290Z,2.67
2022-12-25T02:43:57.317Z,4.43
2022-12-25T02:46:43.326Z,3.57
2022-12-25T02:49:31.921Z,3.65
2022-12-25T02:52:21.577Z,3.17
2022-12-25T02:55:11.586Z,4.13
2022-12-25T02:57:59.569Z,3.17
2022-12-25T03:00:44.534Z,3.40
2022-12-25T03:03:30.799Z,3.33
2022-12-25T03:06:18.037Z,3.50
2022-12-25T03:08:46.827Z,3.47
2022-12-25T03:11:32.953Z,3.70
2022-12-25T03:14:22.249Z,3.05
2022-12-25T03:16:54.430Z,3.30
2022-12-25T03:19:47.307Z,3.23
2022-12-25T03:22:39.934Z,3.40
2022-12-25T03:25:28.936Z,3.07
2022-12-25T03:27:56.694Z,3.00
2022-12-25T03:30:57.332Z,3.23
2022-12-25T03:33:44.967Z,2.50
2022-12-25T03:36:24.383Z,3.27
2022-12-25T03:39:06.345Z,3.40
2022-12-25T03:41:52.236Z,3.40
2022-12-25T03:44:45.825Z,2.73
2022-12-25T03:47:35.834Z,2.70
2022-12-25T03:50:22.874Z,2.73
2022-12-25T03:53:11.078Z,3.10
2022-12-25T03:55:57.126Z,2.63
2022-12-25T03:58:44.147Z,3.33
2022-12-25T04:04:14.272Z,2.40
2022-12-25T04:07:00.384Z,2.50
2022-12-25T04:09:45.297Z,3.90
2022-12-25T04:12:32.011Z,3.42
2022-12-25T04:15:25.972Z,2.53
2022-12-25T04:18:12.698Z,2.40
2022-12-25T04:21:09.795Z,2.40
2022-12-25T04:23:54.533Z,2.60
2022-12-25T04:26:39.708Z,3.00
2022-12-25T04:29:25.174Z,2.80
2022-12-25T04:32:11.841Z,2.83
2022-12-25T04:34:57.033Z,2.80
2022-12-25T04:37:24.484Z,3.27
2022-12-25T04:40:00.105Z,2.90
2022-12-25T04:42:26.484Z,2.30
2022-12-25T04:44:52.742Z,2.63
2022-12-25T04:47:19.195Z,2.67
2022-12-25T04:49:48.548Z,3.73
2022-12-25T04:52:16.633Z,2.50
2022-12-25T04:54:42.954Z,3.47
2022-12-25T04:57:11.703Z,2.50
2022-12-25T04:59:38.064Z,2.87
2022-12-25T05:02:04.464Z,2.50
2022-12-25T05:04:31.050Z,2.63
2022-12-25T05:06:57.319Z,2.27
2022-12-25T05:09:27.347Z,1.97
2022-12-25T05:11:56.402Z,3.10
2022-12-25T05:14:22.841Z,2.90
2022-12-25T05:16:49.308Z,2.37
2022-12-25T05:19:15.898Z,2.27
2022-12-25T05:21:42.408Z,2.73
2022-12-25T05:24:09.893Z,2.83
2022-12-25T05:26:36.997Z,2.47
2022-12-25T05:29:03.275Z,2.30
2022-12-25T05:31:29.594Z,2.40
2022-12-25T05:33:55.950Z,3.10
2022-12-25T05:36:22.265Z,3.03
2022-12-25T05:38:48.864Z,3.17
2022-12-25T05:41:15.340Z,2.67
2022-12-25T05:43:41.907Z,3.33
2022-12-25T05:46:09.283Z,2.73
2022-12-25T05:48:39.296Z,2.60
2022-12-25T05:51:07.348Z,2.97
2022-12-25T05:53:33.988Z,2.73
2022-12-25T05:56:02.261Z,2.77
2022-12-25T05:58:32.319Z,2.13
2022-12-25T06:00:59.581Z,2.77
2022-12-25T06:03:27.371Z,2.20
2022-12-25T06:05:54.048Z,2.83
2022-12-25T06:08:22.031Z,2.60
2022-12-25T06:10:53.018Z,2.10
2022-12-25T06:13:19.852Z,2.47
2022-12-25T06:15:46.634Z,2.13
2022-12-25T06:18:16.234Z,2.33
2022-12-25T06:20:44.899Z,2.43
2022-12-25T06:23:13.880Z,2.67
2022-12-25T06:25:40.360Z,2.73
2022-12-25T06:28:08.343Z,2.97
2022-12-25T06:30:48.989Z,2.33
2022-12-25T06:33:17.291Z,2.50
2022-12-25T06:35:52.579Z,3.37
2022-12-25T06:38:23.168Z,2.45
2022-12-25T06:40:55.260Z,2.67
2022-12-25T06:43:21.818Z,2.97
2022-12-25T06:45:51.745Z,2.97
2022-12-25T06:48:19.295Z,2.33
2022-12-25T06:50:47.536Z,2.00
2022-12-25T06:53:13.936Z,2.43
2022-12-25T06:55:43.105Z,2.37
2022-12-25T06:58:09.482Z,2.50
2022-12-25T07:00:35.826Z,2.97
2022-12-25T07:03:02.618Z,2.60
2022-12-25T07:08:12.556Z,2.40
2022-12-25T07:10:40.545Z,1.93
2022-12-25T07:13:06.912Z,2.50
2022-12-25T07:15:33.308Z,2.10
2022-12-25T07:18:01.931Z,2.80
2022-12-25T07:20:29.939Z,2.57
2022-12-25T07:22:57.449Z,2.60
2022-12-25T07:25:24.797Z,2.53
2022-12-25T07:27:51.052Z,2.50
2022-12-25T07:30:19.732Z,2.50
2022-12-25T07:32:50.170Z,2.63
2022-12-25T07:35:17.462Z,2.40
2022-12-25T07:37:43.735Z,2.23
2022-12-25T07:40:10.243Z,2.13
2022-12-25T07:42:36.568Z,1.80
2022-12-25T07:45:03.474Z,2.37
2022-12-25T07:47:29.766Z,2.20
2022-12-25T07:49:56.080Z,3.00
2022-12-25T07:52:22.491Z,2.60
2022-12-25T07:54:48.857Z,2.47
2022-12-25T07:57:15.158Z,2.10
2022-12-25T07:59:41.426Z,3.77
2022-12-25T08:02:09.118Z,2.93
2022-12-25T08:04:35.723Z,2.20
2022-12-25T08:07:02.829Z,2.07
2022-12-25T08:09:29.153Z,3.27
2022-12-25T08:11:55.454Z,2.13
2022-12-25T08:14:21.758Z,3.03
2022-12-25T08:16:48.151Z,1.87
2022-12-25T08:19:15.028Z,1.97
2022-12-25T08:21:42.469Z,2.90
2022-12-25T08:24:08.824Z,2.80
2022-12-25T08:26:35.210Z,2.90
2022-12-25T08:29:01.758Z,2.80
2022-12-25T08:31:29.065Z,2.30
2022-12-25T08:33:56.707Z,2.33
2022-12-25T08:36:23.371Z,2.30
2022-12-25T08:38:50.376Z,2.70
2022-12-25T08:41:16.739Z,2.93
2022-12-25T08:43:43.047Z,2.20
2022-12-25T08:46:09.434Z,3.07
2022-12-25T08:48:35.719Z,1.80
2022-12-25T08:51:02.396Z,2.57
2022-12-25T08:53:28.739Z,2.27
2022-12-25T08:55:57.016Z,2.10
2022-12-25T08:58:23.335Z,1.80
2022-12-25T09:00:49.619Z,2.73
2022-12-25T09:03:15.925Z,1.90
2022-12-25T09:05:42.230Z,2.27
2022-12-25T09:08:08.847Z,2.53
2022-12-25T09:10:35.804Z,2.63
2022-12-25T09:13:02.175Z,2.57
2022-12-25T09:15:28.512Z,2.13
2022-12-25T09:17:54.832Z,2.20
2022-12-25T09:20:21.261Z,2.40
2022-12-25T09:22:47.542Z,1.57
2022-12-25T09:25:13.820Z,2.23
2022-12-25T09:27:44.220Z,2.40
2022-12-25T09:30:10.724Z,2.20
2022-12-25T09:32:36.958Z,2.70
2022-12-25T09:35:03.280Z,2.07
2022-12-25T09:37:29.907Z,1.97
2022-12-25T09:39:56.535Z,1.90
2022-12-25T09:42:24.813Z,2.60
2022-12-25T09:44:53.324Z,2.00
2022-12-25T09:47:22.111Z,2.53
2022-12-25T09:49:48.390Z,2.53
2022-12-25T09:52:16.957Z,2.33
2022-12-25T09:54:49.961Z,2.07
2022-12-25T09:57:16.355Z,2.23
2022-12-25T09:59:43.527Z,3.00
2022-12-25T10:02:30.963Z,2.23
2022-12-25T10:05:06.941Z,2.57
2022-12-25T10:07:52.126Z,1.70
2022-12-25T10:10:37.451Z,2.60
2022-12-25T10:13:22.520Z,1.80
2022-12-25T10:16:21.502Z,2.20
2022-12-25T10:19:03.123Z,1.93
2022-12-25T10:21:29.459Z,1.90
2022-12-25T10:23:58.755Z,2.73
2022-12-25T10:26:25.624Z,1.77
2022-12-25T10:29:06.711Z,2.10
2022-12-25T10:31:34.629Z,2.07
2022-12-25T10:34:01.118Z,2.47
2022-12-25T10:36:28.617Z,2.57
2022-12-25T10:38:57.062Z,2.37
2022-12-25T10:41:47.715Z,2.53
2022-12-25T10:44:21.009Z,1.90
2022-12-25T10:46:48.521Z,2.07
2022-12-25T10:49:15.943Z,2.43
2022-12-25T10:51:42.340Z,2.30
2022-12-25T10:54:27.714Z,3.20
2022-12-25T10:56:59.788Z,2.10
2022-12-25T10:59:28.185Z,2.13
2022-12-25T11:02:03.784Z,2.20
2022-12-25T11:04:34.748Z,1.88
2022-12-25T11:07:15.100Z,2.20
2022-12-25T11:09:49.195Z,2.03
2022-12-25T11:12:17.761Z,2.17
2022-12-25T11:14:51.566Z,2.00
2022-12-25T11:17:21.532Z,2.20
2022-12-25T11:19:53.954Z,2.23
2022-12-25T11:22:20.531Z,2.07
2022-12-25T11:24:46.893Z,1.73
2022-12-25T11:27:21.508Z,2.00
2022-12-25T11:30:03.409Z,1.60
2022-12-25T11:32:59.239Z,2.07
2022-12-25T11:35:34.623Z,1.80
2022-12-25T11:38:04.898Z,2.60
2022-12-25T11:40:49.617Z,2.05
2022-12-25T11:43:25.606Z,2.73
2022-12-25T11:45:58.884Z,2.27
2022-12-25T11:48:28.250Z,1.90
2022-12-25T11:50:57.698Z,2.27
2022-12-25T11:53:33.551Z,2.33
2022-12-25T11:56:01.673Z,1.88
2022-12-25T11:58:58.629Z,2.17
2022-12-25T12:01:36.022Z,1.83
2022-12-25T12:04:12.755Z,2.00
2022-12-25T12:06:56.051Z,1.80
2022-12-25T12:09:31.790Z,1.83
2022-12-25T12:12:04.324Z,2.13
2022-12-25T12:14:49.843Z,2.07
2022-12-25T12:17:18.462Z,1.73
2022-12-25T12:19:46.529Z,1.93
2022-12-25T12:22:17.816Z,2.80
2022-12-25T12:24:44.474Z,2.00
2022-12-25T12:27:10.830Z,1.70
2022-12-25T12:29:44.216Z,2.47
2022-12-25T12:32:29.462Z,2.20
2022-12-25T12:34:56.917Z,2.20
2022-12-25T12:37:29.172Z,2.13
2022-12-25T12:40:03.604Z,2.30
2022-12-25T12:42:34.037Z,2.23
2022-12-25T12:45:10.168Z,2.47
2022-12-25T12:50:03.466Z,1.63
2022-12-25T12:52:37.757Z,2.00
2022-12-25T12:55:08.030Z,2.85
2022-12-25T12:57:39.632Z,2.00
2022-12-25T13:00:11.483Z,2.13
2022-12-25T13:02:56.720Z,2.37
2022-12-25T13:05:41.949Z,2.00
2022-12-25T13:08:23.282Z,2.07
2022-12-25T13:11:02.411Z,1.90
2022-12-25T13:13:33.959Z,2.60
2022-12-25T13:16:00.271Z,2.00
2022-12-25T13:18:26.802Z,2.23
2022-12-25T13:20:57.293Z,2.00
2022-12-25T13:23:28.739Z,2.20
2022-12-25T13:25:58.033Z,1.93
2022-12-25T13:28:28.601Z,2.40
2022-12-25T13:31:01.655Z,2.13
2022-12-25T13:33:28.043Z,2.10
2022-12-25T13:35:54.661Z,2.20
2022-12-25T13:38:22.108Z,2.00
2022-12-25T13:41:11.256Z,2.00
2022-12-25T13:43:42.170Z,2.17
2022-12-25T13:46:12.226Z,2.10
2022-12-25T13:48:38.583Z,2.00
2022-12-25T13:51:13.450Z,2.60
2022-12-25T13:53:39.739Z,2.50
2022-12-25T13:56:06.062Z,2.03
2022-12-25T13:58:34.686Z,1.93
2022-12-25T14:01:02.606Z,2.00
2022-12-25T14:03:33.173Z,2.07
2022-12-25T14:06:02.991Z,1.90
2022-12-25T14:08:33.702Z,1.80
2022-12-25T14:11:04.714Z,2.23
2022-12-25T14:13:33.195Z,2.07
2022-12-25T14:15:59.948Z,2.10
2022-12-25T14:18:27.712Z,1.80
2022-12-25T14:21:06.152Z,1.87
2022-12-25T14:23:43.736Z,2.00
2022-12-25T14:26:23.330Z,2.00
2022-12-25T14:28:51.223Z,1.80
2022-12-25T14:31:18.306Z,2.10
2022-12-25T14:33:45.268Z,2.00
2022-12-25T14:36:13.063Z,1.90
2022-12-25T14:38:41.593Z,2.20
2022-12-25T14:41:25.980Z,2.77
2022-12-25T14:43:55.493Z,2.13
2022-12-25T14:46:23.879Z,2.47
2022-12-25T14:48:58.412Z,2.00
2022-12-25T14:51:25.048Z,2.37
2022-12-25T14:53:53.297Z,2.83
2022-12-25T14:56:21.189Z,2.63
2022-12-25T14:59:18.112Z,1.93
2022-12-25T15:01:49.681Z,2.20
2022-12-25T15:04:17.051Z,2.40
2022-12-25T15:06:54.118Z,2.37
2022-12-25T15:09:23.626Z,2.80
2022-12-25T15:11:51.173Z,2.83
2022-12-25T15:14:17.877Z,3.03
2022-12-25T15:16:47.026Z,2.70
2022-12-25T15:19:20.563Z,2.90
2022-12-25T15:21:58.738Z,3.13
2022-12-25T15:24:26.462Z,2.93
2022-12-25T15:26:56.540Z,3.30
2022-12-25T15:29:44.559Z,3.77
2022-12-25T15:32:20.199Z,3.58
2022-12-25T15:34:50.152Z,3.33
2022-12-25T15:37:19.937Z,3.77
2022-12-25T15:39:46.509Z,4.40
2022-12-25T15:42:17.541Z,4.20
2022-12-25T15:44:45.968Z,3.40
2022-12-25T15:47:16.225Z,3.30
2022-12-25T15:49:42.955Z,3.23
2022-12-25T15:52:11.187Z,3.17
2022-12-25T15:54:37.720Z,3.13
2022-12-25T15:57:05.050Z,3.03
2022-12-25T15:59:31.662Z,3.43
2022-12-25T16:02:00.008Z,3.70
2022-12-25T16:04:28.856Z,3.87
2022-12-25T16:06:59.400Z,3.20
2022-12-25T16:09:27.452Z,3.13
2022-12-25T16:11:56.964Z,3.93
2022-12-25T16:14:25.091Z,3.43
2022-12-25T16:16:54.282Z,4.00
2022-12-25T16:19:21.060Z,3.67
2022-12-25T16:21:50.556Z,3.67
2022-12-25T16:24:18.510Z,3.17
2022-12-25T16:26:44.859Z,3.70
2022-12-25T16:29:14.134Z,3.30
2022-12-25T16:31:41.183Z,3.23
2022-12-25T16:34:09.329Z,3.27
2022-12-25T16:36:38.074Z,3.87
2022-12-25T16:39:06.231Z,3.40
2022-12-25T16:41:32.784Z,3.10
2022-12-25T16:44:04.436Z,2.67
2022-12-25T16:46:40.418Z,3.08
2022-12-25T16:49:06.939Z,3.40
2022-12-25T16:51:33.349Z,3.07
2022-12-25T16:54:02.107Z,2.80
2022-12-25T16:56:30.911Z,3.67
2022-12-25T16:58:58.966Z,3.30
2022-12-25T17:01:26.313Z,3.67
2022-12-25T17:03:56.256Z,3.93
2022-12-25T17:06:27.584Z,3.80
2022-12-25T17:08:59.656Z,4.17
2022-12-25T17:11:34.548Z,4.20
2022-12-25T17:14:03.858Z,5.40
2022-12-25T17:16:33.511Z,6.57
2022-12-25T17:19:04.142Z,5.33
2022-12-25T17:21:32.846Z,5.03
2022-12-25T17:24:03.639Z,3.30
2022-12-25T17:26:56.175Z,4.00
2022-12-25T17:29:27.906Z,4.10
2022-12-25T17:31:55.678Z,4.00
2022-12-25T17:34:23.941Z,4.60
2022-12-25T17:36:53.580Z,3.47
2022-12-25T17:39:24.087Z,3.00
2022-12-25T17:41:53.017Z,4.50
2022-12-25T17:44:27.299Z,3.93
2022-12-25T17:46:54.328Z,4.27
2022-12-25T17:49:30.232Z,4.93
2022-12-25T17:51:59.061Z,4.43
2022-12-25T17:54:36.945Z,3.67
2022-12-25T17:57:29.748Z,3.90
2022-12-25T17:59:56.836Z,4.03
2022-12-25T18:02:24.466Z,5.20
2022-12-25T18:04:53.739Z,5.57
2022-12-25T18:07:30.793Z,4.80
2022-12-25T18:10:03.633Z,4.70
2022-12-25T18:12:31.041Z,4.33
2022-12-25T18:15:03.195Z,3.53
2022-12-25T18:17:38.332Z,3.80
2022-12-25T18:20:07.843Z,4.18
2022-12-25T18:22:41.825Z,3.93
2022-12-25T18:25:10.159Z,4.03
2022-12-25T18:27:47.241Z,2.90
2022-12-25T18:30:17.413Z,3.50
2022-12-25T18:32:45.570Z,3.57
2022-12-25T18:35:15.015Z,3.33
2022-12-25T18:37:44.997Z,3.77
2022-12-25T18:40:17.223Z,3.93
2022-12-25T18:43:01.068Z,3.20
2022-12-25T18:45:29.763Z,3.23
2022-12-25T18:47:56.338Z,3.20
2022-12-25T18:50:23.129Z,2.80
2022-12-25T18:52:51.698Z,3.27
2022-12-25T18:55:19.783Z,3.13
2022-12-25T18:57:46.227Z,3.30
2022-12-25T19:00:13.566Z,3.33
2022-12-25T19:02:40.177Z,3.27
2022-12-25T19:05:07.161Z,3.97
2022-12-25T19:07:33.982Z,2.73
2022-12-25T19:10:00.300Z,3.30
2022-12-25T19:12:29.693Z,3.07
2022-12-25T19:14:56.006Z,3.30
2022-12-25T19:17:26.601Z,2.67
2022-12-25T19:19:57.784Z,2.93
2022-12-25T19:22:24.094Z,3.00
2022-12-25T19:24:50.350Z,2.97
2022-12-25T19:27:16.618Z,3.10
2022-12-25T19:29:43.350Z,3.07
2022-12-25T19:32:09.729Z,3.03
2022-12-25T19:34:36.192Z,2.83
2022-12-25T19:37:04.068Z,2.40
2022-12-25T19:39:30.764Z,2.77
2022-12-25T19:41:57.564Z,2.80
2022-12-25T19:44:27.016Z,3.30
2022-12-25T19:46:53.629Z,3.33
2022-12-25T19:49:20.060Z,4.83
2022-12-25T19:51:46.511Z,3.33
2022-12-25T19:54:14.315Z,3.10
2022-12-25T19:56:41.133Z,3.80
2022-12-25T19:59:07.597Z,3.63
2022-12-25T20:01:34.250Z,2.43
2022-12-25T20:04:01.640Z,3.13
2022-12-25T20:06:33.166Z,3.10
2022-12-25T20:09:02.439Z,3.00
2022-12-25T20:11:29.438Z,3.77
2022-12-25T20:13:56.175Z,3.30
2022-12-25T20:16:24.163Z,3.30
2022-12-25T20:18:51.406Z,3.43
2022-12-25T20:21:18.689Z,2.90
2022-12-25T20:23:46.430Z,3.40
2022-12-25T20:26:14.150Z,3.47
2022-12-25T20:28:41.807Z,3.83
2022-12-25T20:31:11.018Z,3.03
2022-12-25T20:33:37.749Z,3.27
2022-12-25T20:36:04.931Z,3.07
2022-12-25T20:38:31.705Z,3.97
2022-12-25T20:41:25.843Z,3.10
2022-12-25T20:43:45.909Z,2.60
2022-12-25T20:46:20.988Z,3.03
2022-12-25T20:48:49.697Z,3.57
2022-12-25T20:51:17.291Z,3.43
2022-12-25T20:53:45.083Z,3.17
2022-12-25T20:56:14.005Z,3.20
2022-12-25T20:58:40.435Z,3.57
2022-12-25T21:01:14.254Z,3.60
2022-12-25T21:03:41.176Z,3.13
2022-12-25T21:06:08.485Z,3.27
2022-12-25T21:08:35.400Z,3.27
2022-12-25T21:11:02.472Z,3.13
2022-12-25T21:13:29.531Z,3.17
2022-12-25T21:15:56.521Z,2.93
2022-12-25T21:18:23.935Z,2.83
2022-12-25T21:20:52.611Z,3.17
2022-12-25T21:23:19.582Z,3.00
2022-12-25T21:25:46.775Z,3.20
2022-12-25T21:28:13.291Z,2.67
2022-12-25T21:30:39.644Z,2.87
2022-12-25T21:33:25.083Z,3.30
2022-12-25T21:35:51.399Z,3.00
2022-12-25T21:38:17.867Z,3.23
2022-12-25T21:40:44.363Z,2.77
2022-12-25T21:43:15.590Z,2.90
2022-12-25T21:45:42.370Z,2.60
2022-12-25T21:48:08.845Z,2.23
2022-12-25T21:50:53.991Z,2.77
2022-12-25T21:53:20.760Z,2.77
2022-12-25T21:55:58.705Z,2.77
2022-12-25T21:58:25.013Z,3.10
2022-12-25T22:00:52.050Z,2.60
2022-12-25T22:03:20.558Z,2.53
2022-12-25T22:06:06.625Z,2.83
2022-12-25T22:08:33.178Z,2.90
2022-12-25T22:11:02.894Z,2.60
2022-12-25T22:13:48.122Z,3.10
2022-12-25T22:16:32.858Z,3.43
2022-12-25T22:19:19.328Z,2.77
2022-12-25T22:21:56.561Z,3.28
2022-12-25T22:24:29.020Z,2.70
2022-12-25T22:26:55.738Z,3.57
2022-12-25T22:29:22.340Z,2.53
2022-12-25T22:31:48.696Z,3.07
2022-12-25T22:34:16.502Z,3.33
2022-12-25T22:36:43.122Z,2.53
2022-12-25T22:39:09.477Z,2.63
2022-12-25T22:41:36.272Z,2.70
2022-12-25T22:44:16.938Z,2.67
2022-12-25T22:46:43.820Z,2.97
2022-12-25T22:49:10.443Z,2.60
2022-12-25T22:51:36.767Z,3.07
2022-12-25T22:54:03.988Z,2.70
2022-12-25T22:56:30.856Z,2.97
2022-12-25T22:58:57.442Z,3.03
2022-12-25T23:01:23.906Z,2.50
2022-12-25T23:03:52.843Z,2.60
2022-12-25T23:06:21.378Z,2.60
2022-12-25T23:08:48.116Z,2.50
2022-12-25T23:11:16.053Z,2.20
2022-12-25T23:14:01.482Z,2.50
2022-12-25T23:16:28.071Z,2.53
2022-12-25T23:19:13.514Z,2.33
2022-12-25T23:21:59.037Z,2.60
2022-12-25T23:24:44.084Z,2.50
2022-12-25T23:27:11.625Z,2.50
2022-12-25T23:29:38.035Z,2.50
2022-12-25T23:32:05.544Z,2.40
2022-12-25T23:34:32.141Z,3.10
2022-12-25T23:36:58.809Z,2.77
2022-12-25T23:39:25.153Z,2.77
2022-12-25T23:41:51.477Z,2.50
2022-12-25T23:44:19.096Z,2.53
2022-12-25T23:46:52.630Z,2.20
2022-12-25T23:49:20.744Z,2.70
2022-12-25T23:51:47.528Z,2.43
2022-12-25T23:54:16.908Z,2.43
2022-12-25T23:56:43.696Z,2.37
2022-12-25T23:59:11.469Z,2.30
